sensor_id;sensor_type;location;lat;lon;timestamp;P1;durP1;ratioP1;P2;durP2;ratioP2
63312;SDS011;49442;45.640;13.812;2023-12-29T00:02:01;33.03;;;17.63;;
63312;SDS011;49442;45.640;13.812;2023-12-29T00:04:27;23.00;;;16.48;;
63312;SDS011;49442;45.640;13.812;2023-12-29T00:06:53;22.58;;;14.80;;
63312;SDS011;49442;45.640;13.812;2023-12-29T00:09:20;21.80;;;15.10;;
63312;SDS011;49442;45.640;13.812;2023-12-29T00:11:54;31.95;;;16.27;;
63312;SDS011;49442;45.640;13.812;2023-12-29T00:14:20;22.58;;;15.02;;
63312;SDS011;49442;45.640;13.812;2023-12-29T00:16:46;28.30;;;15.63;;
63312;SDS011;49442;45.640;13.812;2023-12-29T00:19:12;28.42;;;15.07;;
63312;SDS011;49442;45.640;13.812;2023-12-29T00:21:37;21.60;;;13.15;;
63312;SDS011;49442;45.640;13.812;2023-12-29T00:24:03;21.67;;;13.45;;
63312;SDS011;49442;45.640;13.812;2023-12-29T00:26:30;24.90;;;16.67;;
63312;SDS011;49442;45.640;13.812;2023-12-29T00:28:55;32.10;;;18.60;;
63312;SDS011;49442;45.640;13.812;2023-12-29T00:31:21;24.50;;;18.88;;
63312;SDS011;49442;45.640;13.812;2023-12-29T00:33:47;27.70;;;17.08;;
63312;SDS011;49442;45.640;13.812;2023-12-29T00:36:17;21.23;;;15.07;;
63312;SDS011;49442;45.640;13.812;2023-12-29T00:38:43;26.13;;;17.10;;
63312;SDS011;49442;45.640;13.812;2023-12-29T00:41:09;27.90;;;15.70;;
63312;SDS011;49442;45.640;13.812;2023-12-29T00:43:35;22.77;;;13.13;;
63312;SDS011;49442;45.640;13.812;2023-12-29T00:46:01;21.05;;;14.10;;
63312;SDS011;49442;45.640;13.812;2023-12-29T00:48:30;23.05;;;13.57;;
63312;SDS011;49442;45.640;13.812;2023-12-29T00:50:56;27.58;;;16.13;;
63312;SDS011;49442;45.640;13.812;2023-12-29T00:53:22;18.00;;;13.52;;
63312;SDS011;49442;45.640;13.812;2023-12-29T00:55:48;20.13;;;13.65;;
63312;SDS011;49442;45.640;13.812;2023-12-29T00:58:13;18.48;;;12.60;;
63312;SDS011;49442;45.640;13.812;2023-12-29T01:00:39;18.20;;;11.23;;
63312;SDS011;49442;45.640;13.812;2023-12-29T01:03:05;18.92;;;12.70;;
63312;SDS011;49442;45.640;13.812;2023-12-29T01:05:31;28.73;;;15.93;;
63312;SDS011;49442;45.640;13.812;2023-12-29T01:07:56;25.70;;;18.42;;
63312;SDS011;49442;45.640;13.812;2023-12-29T01:10:22;29.92;;;18.20;;
63312;SDS011;49442;45.640;13.812;2023-12-29T01:12:48;31.05;;;19.45;;
63312;SDS011;49442;45.640;13.812;2023-12-29T01:15:13;34.20;;;20.48;;
63312;SDS011;49442;45.640;13.812;2023-12-29T01:17:39;27.10;;;19.15;;
63312;SDS011;49442;45.640;13.812;2023-12-29T01:20:05;25.90;;;17.50;;
63312;SDS011;49442;45.640;13.812;2023-12-29T01:22:31;39.88;;;17.05;;
63312;SDS011;49442;45.640;13.812;2023-12-29T01:25:00;26.52;;;17.10;;
63312;SDS011;49442;45.640;13.812;2023-12-29T01:27:26;26.38;;;17.48;;
63312;SDS011;49442;45.640;13.812;2023-12-29T01:29:52;29.95;;;20.77;;
63312;SDS011;49442;45.640;13.812;2023-12-29T01:32:18;29.75;;;19.52;;
63312;SDS011;49442;45.640;13.812;2023-12-29T01:34:44;31.63;;;17.77;;
63312;SDS011;49442;45.640;13.812;2023-12-29T01:37:10;28.67;;;17.88;;
63312;SDS011;49442;45.640;13.812;2023-12-29T01:39:35;24.52;;;16.60;;
63312;SDS011;49442;45.640;13.812;2023-12-29T01:42:01;25.65;;;18.60;;
63312;SDS011;49442;45.640;13.812;2023-12-29T01:44:27;29.15;;;19.27;;
63312;SDS011;49442;45.640;13.812;2023-12-29T01:46:53;27.50;;;18.80;;
63312;SDS011;49442;45.640;13.812;2023-12-29T01:49:21;29.38;;;18.77;;
63312;SDS011;49442;45.640;13.812;2023-12-29T01:51:52;31.70;;;19.63;;
63312;SDS011;49442;45.640;13.812;2023-12-29T01:54:20;30.15;;;15.95;;
63312;SDS011;49442;45.640;13.812;2023-12-29T01:56:47;21.73;;;15.48;;
63312;SDS011;49442;45.640;13.812;2023-12-29T01:59:14;27.73;;;16.27;;
63312;SDS011;49442;45.640;13.812;2023-12-29T02:01:41;31.35;;;17.52;;
63312;SDS011;49442;45.640;13.812;2023-12-29T02:04:08;31.40;;;19.02;;
63312;SDS011;49442;45.640;13.812;2023-12-29T02:06:37;28.33;;;19.90;;
63312;SDS011;49442;45.640;13.812;2023-12-29T02:09:04;33.38;;;18.17;;
63312;SDS011;49442;45.640;13.812;2023-12-29T02:11:30;29.48;;;16.38;;
63312;SDS011;49442;45.640;13.812;2023-12-29T02:13:57;28.08;;;17.95;;
63312;SDS011;49442;45.640;13.812;2023-12-29T02:18:58;29.67;;;19.15;;
63312;SDS011;49442;45.640;13.812;2023-12-29T02:21:26;32.35;;;19.42;;
63312;SDS011;49442;45.640;13.812;2023-12-29T02:23:52;35.33;;;22.67;;
63312;SDS011;49442;45.640;13.812;2023-12-29T02:26:18;30.05;;;18.20;;
63312;SDS011;49442;45.640;13.812;2023-12-29T02:28:49;34.10;;;18.50;;
63312;SDS011;49442;45.640;13.812;2023-12-29T02:31:22;24.45;;;17.90;;
63312;SDS011;49442;45.640;13.812;2023-12-29T02:33:51;34.70;;;23.90;;
63312;SDS011;49442;45.640;13.812;2023-12-29T02:36:18;36.65;;;26.25;;
63312;SDS011;49442;45.640;13.812;2023-12-29T02:38:46;43.78;;;26.85;;
63312;SDS011;49442;45.640;13.812;2023-12-29T02:41:11;40.05;;;27.58;;
63312;SDS011;49442;45.640;13.812;2023-12-29T02:43:40;40.50;;;26.02;;
63312;SDS011;49442;45.640;13.812;2023-12-29T02:46:06;43.28;;;26.75;;
63312;SDS011;49442;45.640;13.812;2023-12-29T02:48:32;28.35;;;19.10;;
63312;SDS011;49442;45.640;13.812;2023-12-29T02:50:57;37.13;;;22.90;;
63312;SDS011;49442;45.640;13.812;2023-12-29T02:53:23;42.65;;;24.42;;
63312;SDS011;49442;45.640;13.812;2023-12-29T02:55:49;38.85;;;25.52;;
63312;SDS011;49442;45.640;13.812;2023-12-29T02:58:14;33.15;;;23.63;;
63312;SDS011;49442;45.640;13.812;2023-12-29T03:00:40;35.45;;;25.05;;
63312;SDS011;49442;45.640;13.812;2023-12-29T03:03:06;39.38;;;25.35;;
63312;SDS011;49442;45.640;13.812;2023-12-29T03:05:31;35.03;;;25.05;;
63312;SDS011;49442;45.640;13.812;2023-12-29T03:07:57;40.97;;;27.30;;
63312;SDS011;49442;45.640;13.812;2023-12-29T03:10:23;40.25;;;26.30;;
63312;SDS011;49442;45.640;13.812;2023-12-29T03:12:48;37.40;;;26.65;;
63312;SDS011;49442;45.640;13.812;2023-12-29T03:15:14;39.03;;;26.50;;
63312;SDS011;49442;45.640;13.812;2023-12-29T03:17:40;39.85;;;26.55;;
63312;SDS011;49442;45.640;13.812;2023-12-29T03:20:06;53.15;;;36.72;;
63312;SDS011;49442;45.640;13.812;2023-12-29T03:22:33;69.85;;;43.65;;
63312;SDS011;49442;45.640;13.812;2023-12-29T03:24:58;76.75;;;46.97;;
63312;SDS011;49442;45.640;13.812;2023-12-29T03:27:24;101.25;;;58.85;;
63312;SDS011;49442;45.640;13.812;2023-12-29T03:29:50;105.07;;;67.70;;
63312;SDS011;49442;45.640;13.812;2023-12-29T03:32:15;101.78;;;66.80;;
63312;SDS011;49442;45.640;13.812;2023-12-29T03:34:42;121.45;;;79.63;;
63312;SDS011;49442;45.640;13.812;2023-12-29T03:37:08;133.05;;;82.43;;
63312;SDS011;49442;45.640;13.812;2023-12-29T03:39:34;72.85;;;50.22;;
63312;SDS011;49442;45.640;13.812;2023-12-29T03:42:00;103.03;;;62.40;;
63312;SDS011;49442;45.640;13.812;2023-12-29T03:44:26;112.50;;;72.90;;
63312;SDS011;49442;45.640;13.812;2023-12-29T03:46:52;113.75;;;73.72;;
63312;SDS011;49442;45.640;13.812;2023-12-29T03:49:18;128.88;;;82.72;;
63312;SDS011;49442;45.640;13.812;2023-12-29T03:51:44;132.85;;;82.25;;
63312;SDS011;49442;45.640;13.812;2023-12-29T03:54:11;133.63;;;85.07;;
63312;SDS011;49442;45.640;13.812;2023-12-29T03:56:37;155.25;;;95.32;;
63312;SDS011;49442;45.640;13.812;2023-12-29T03:59:02;161.50;;;96.70;;
63312;SDS011;49442;45.640;13.812;2023-12-29T04:01:28;153.40;;;97.43;;
63312;SDS011;49442;45.640;13.812;2023-12-29T04:03:54;169.48;;;103.50;;
63312;SDS011;49442;45.640;13.812;2023-12-29T04:06:19;151.60;;;97.43;;
63312;SDS011;49442;45.640;13.812;2023-12-29T04:08:45;141.70;;;85.28;;
63312;SDS011;49442;45.640;13.812;2023-12-29T04:11:14;144.35;;;89.43;;
63312;SDS011;49442;45.640;13.812;2023-12-29T04:13:40;152.60;;;100.35;;
63312;SDS011;49442;45.640;13.812;2023-12-29T04:16:05;172.20;;;107.57;;
63312;SDS011;49442;45.640;13.812;2023-12-29T04:18:31;167.73;;;107.03;;
63312;SDS011;49442;45.640;13.812;2023-12-29T04:20:56;165.80;;;102.60;;
63312;SDS011;49442;45.640;13.812;2023-12-29T04:23:22;155.68;;;100.53;;
63312;SDS011;49442;45.640;13.812;2023-12-29T04:25:48;164.88;;;100.93;;
63312;SDS011;49442;45.640;13.812;2023-12-29T04:28:14;190.90;;;115.05;;
63312;SDS011;49442;45.640;13.812;2023-12-29T04:30:39;193.02;;;115.80;;
63312;SDS011;49442;45.640;13.812;2023-12-29T04:33:05;189.30;;;115.25;;
63312;SDS011;49442;45.640;13.812;2023-12-29T04:35:31;175.20;;;111.20;;
63312;SDS011;49442;45.640;13.812;2023-12-29T04:37:56;166.50;;;102.70;;
63312;SDS011;49442;45.640;13.812;2023-12-29T04:40:22;168.07;;;100.60;;
63312;SDS011;49442;45.640;13.812;2023-12-29T04:42:48;161.52;;;97.60;;
63312;SDS011;49442;45.640;13.812;2023-12-29T04:45:13;169.32;;;101.57;;
63312;SDS011;49442;45.640;13.812;2023-12-29T04:47:39;141.88;;;92.10;;
63312;SDS011;49442;45.640;13.812;2023-12-29T04:50:05;134.27;;;82.80;;
63312;SDS011;49442;45.640;13.812;2023-12-29T04:52:31;94.68;;;58.85;;
63312;SDS011;49442;45.640;13.812;2023-12-29T04:54:57;93.10;;;57.30;;
63312;SDS011;49442;45.640;13.812;2023-12-29T04:57:23;87.43;;;56.25;;
63312;SDS011;49442;45.640;13.812;2023-12-29T04:59:48;88.63;;;60.85;;
63312;SDS011;49442;45.640;13.812;2023-12-29T05:02:14;92.93;;;59.75;;
63312;SDS011;49442;45.640;13.812;2023-12-29T05:04:40;90.70;;;61.45;;
63312;SDS011;49442;45.640;13.812;2023-12-29T05:07:09;103.97;;;66.40;;
63312;SDS011;49442;45.640;13.812;2023-12-29T05:09:36;113.82;;;68.55;;
63312;SDS011;49442;45.640;13.812;2023-12-29T05:12:02;109.88;;;71.22;;
63312;SDS011;49442;45.640;13.812;2023-12-29T05:14:28;114.30;;;70.70;;
63312;SDS011;49442;45.640;13.812;2023-12-29T05:16:53;136.82;;;77.45;;
63312;SDS011;49442;45.640;13.812;2023-12-29T05:19:19;119.45;;;74.22;;
63312;SDS011;49442;45.640;13.812;2023-12-29T05:21:45;136.00;;;80.78;;
63312;SDS011;49442;45.640;13.812;2023-12-29T05:24:11;131.93;;;80.65;;
63312;SDS011;49442;45.640;13.812;2023-12-29T05:26:36;133.68;;;80.63;;
63312;SDS011;49442;45.640;13.812;2023-12-29T05:29:02;131.38;;;83.68;;
63312;SDS011;49442;45.640;13.812;2023-12-29T05:31:28;151.05;;;88.22;;
63312;SDS011;49442;45.640;13.812;2023-12-29T05:33:55;165.75;;;96.38;;
63312;SDS011;49442;45.640;13.812;2023-12-29T05:36:21;167.13;;;92.85;;
63312;SDS011;49442;45.640;13.812;2023-12-29T05:38:46;170.05;;;99.90;;
63312;SDS011;49442;45.640;13.812;2023-12-29T05:41:13;186.48;;;104.55;;
63312;SDS011;49442;45.640;13.812;2023-12-29T05:43:38;170.00;;;99.55;;
63312;SDS011;49442;45.640;13.812;2023-12-29T05:46:08;180.57;;;99.80;;
63312;SDS011;49442;45.640;13.812;2023-12-29T05:48:35;184.80;;;105.13;;
63312;SDS011;49442;45.640;13.812;2023-12-29T05:51:05;186.95;;;106.15;;
63312;SDS011;49442;45.640;13.812;2023-12-29T05:53:35;179.02;;;101.82;;
63312;SDS011;49442;45.640;13.812;2023-12-29T05:56:01;189.10;;;106.93;;
63312;SDS011;49442;45.640;13.812;2023-12-29T05:58:27;171.25;;;103.07;;
63312;SDS011;49442;45.640;13.812;2023-12-29T06:00:54;188.73;;;107.13;;
63312;SDS011;49442;45.640;13.812;2023-12-29T06:03:20;169.88;;;99.00;;
63312;SDS011;49442;45.640;13.812;2023-12-29T06:05:46;149.80;;;96.07;;
63312;SDS011;49442;45.640;13.812;2023-12-29T06:08:12;149.15;;;89.55;;
63312;SDS011;49442;45.640;13.812;2023-12-29T06:10:37;145.45;;;86.70;;
63312;SDS011;49442;45.640;13.812;2023-12-29T06:13:03;150.13;;;87.47;;
63312;SDS011;49442;45.640;13.812;2023-12-29T06:15:29;143.90;;;86.93;;
63312;SDS011;49442;45.640;13.812;2023-12-29T06:17:55;142.23;;;86.57;;
63312;SDS011;49442;45.640;13.812;2023-12-29T06:20:21;150.15;;;88.47;;
63312;SDS011;49442;45.640;13.812;2023-12-29T06:22:47;139.75;;;85.68;;
63312;SDS011;49442;45.640;13.812;2023-12-29T06:25:13;139.50;;;85.32;;
63312;SDS011;49442;45.640;13.812;2023-12-29T06:27:38;144.38;;;87.85;;
63312;SDS011;49442;45.640;13.812;2023-12-29T06:30:06;142.60;;;83.88;;
63312;SDS011;49442;45.640;13.812;2023-12-29T06:32:32;142.32;;;87.68;;
63312;SDS011;49442;45.640;13.812;2023-12-29T06:34:58;131.10;;;80.82;;
63312;SDS011;49442;45.640;13.812;2023-12-29T06:37:24;142.43;;;83.25;;
63312;SDS011;49442;45.640;13.812;2023-12-29T06:39:50;136.32;;;80.60;;
63312;SDS011;49442;45.640;13.812;2023-12-29T06:42:15;136.85;;;81.60;;
63312;SDS011;49442;45.640;13.812;2023-12-29T06:44:41;130.30;;;79.60;;
63312;SDS011;49442;45.640;13.812;2023-12-29T06:47:07;122.22;;;75.45;;
63312;SDS011;49442;45.640;13.812;2023-12-29T06:49:36;111.70;;;69.43;;
63312;SDS011;49442;45.640;13.812;2023-12-29T06:52:01;112.05;;;67.55;;
63312;SDS011;49442;45.640;13.812;2023-12-29T06:54:27;97.70;;;61.53;;
63312;SDS011;49442;45.640;13.812;2023-12-29T06:56:53;89.38;;;57.88;;
63312;SDS011;49442;45.640;13.812;2023-12-29T06:59:19;97.65;;;62.42;;
63312;SDS011;49442;45.640;13.812;2023-12-29T07:01:48;78.45;;;50.40;;
63312;SDS011;49442;45.640;13.812;2023-12-29T07:04:13;78.03;;;49.08;;
63312;SDS011;49442;45.640;13.812;2023-12-29T07:06:40;77.45;;;50.15;;
63312;SDS011;49442;45.640;13.812;2023-12-29T07:09:06;75.88;;;49.22;;
63312;SDS011;49442;45.640;13.812;2023-12-29T07:11:33;69.40;;;47.83;;
63312;SDS011;49442;45.640;13.812;2023-12-29T07:13:59;93.68;;;59.00;;
63312;SDS011;49442;45.640;13.812;2023-12-29T07:16:25;82.90;;;54.55;;
63312;SDS011;49442;45.640;13.812;2023-12-29T07:18:51;77.75;;;51.70;;
63312;SDS011;49442;45.640;13.812;2023-12-29T07:21:17;80.63;;;50.88;;
63312;SDS011;49442;45.640;13.812;2023-12-29T07:23:43;79.30;;;50.05;;
63312;SDS011;49442;45.640;13.812;2023-12-29T07:26:09;81.32;;;48.88;;
63312;SDS011;49442;45.640;13.812;2023-12-29T07:28:34;79.13;;;50.55;;
63312;SDS011;49442;45.640;13.812;2023-12-29T07:31:00;72.85;;;47.25;;
63312;SDS011;49442;45.640;13.812;2023-12-29T07:33:26;73.97;;;47.70;;
63312;SDS011;49442;45.640;13.812;2023-12-29T07:35:52;71.10;;;48.25;;
63312;SDS011;49442;45.640;13.812;2023-12-29T07:38:18;75.28;;;50.22;;
63312;SDS011;49442;45.640;13.812;2023-12-29T07:40:44;75.55;;;49.47;;
63312;SDS011;49442;45.640;13.812;2023-12-29T07:43:10;79.75;;;46.10;;
63312;SDS011;49442;45.640;13.812;2023-12-29T07:45:38;81.90;;;47.97;;
63312;SDS011;49442;45.640;13.812;2023-12-29T07:48:05;77.18;;;47.17;;
63312;SDS011;49442;45.640;13.812;2023-12-29T07:50:31;66.72;;;42.63;;
63312;SDS011;49442;45.640;13.812;2023-12-29T07:52:57;71.63;;;45.55;;
63312;SDS011;49442;45.640;13.812;2023-12-29T07:55:27;66.35;;;45.75;;
63312;SDS011;49442;45.640;13.812;2023-12-29T07:57:54;79.60;;;46.22;;
63312;SDS011;49442;45.640;13.812;2023-12-29T08:00:19;80.72;;;49.28;;
63312;SDS011;49442;45.640;13.812;2023-12-29T08:02:45;73.65;;;48.80;;
63312;SDS011;49442;45.640;13.812;2023-12-29T08:05:11;81.97;;;51.63;;
63312;SDS011;49442;45.640;13.812;2023-12-29T08:07:37;79.00;;;50.80;;
63312;SDS011;49442;45.640;13.812;2023-12-29T08:10:05;72.30;;;50.13;;
63312;SDS011;49442;45.640;13.812;2023-12-29T08:12:31;82.15;;;51.42;;
63312;SDS011;49442;45.640;13.812;2023-12-29T08:14:59;90.47;;;53.90;;
63312;SDS011;49442;45.640;13.812;2023-12-29T08:17:25;83.53;;;54.97;;
63312;SDS011;49442;45.640;13.812;2023-12-29T08:19:51;81.10;;;56.03;;
63312;SDS011;49442;45.640;13.812;2023-12-29T08:22:16;83.82;;;56.00;;
63312;SDS011;49442;45.640;13.812;2023-12-29T08:24:43;76.45;;;51.33;;
63312;SDS011;49442;45.640;13.812;2023-12-29T08:27:12;82.20;;;55.13;;
63312;SDS011;49442;45.640;13.812;2023-12-29T08:29:38;89.60;;;57.28;;
63312;SDS011;49442;45.640;13.812;2023-12-29T08:32:04;85.43;;;57.70;;
63312;SDS011;49442;45.640;13.812;2023-12-29T08:34:30;96.15;;;61.78;;
63312;SDS011;49442;45.640;13.812;2023-12-29T08:36:56;89.45;;;60.70;;
63312;SDS011;49442;45.640;13.812;2023-12-29T08:39:22;88.05;;;59.53;;
63312;SDS011;49442;45.640;13.812;2023-12-29T08:41:48;91.05;;;62.05;;
63312;SDS011;49442;45.640;13.812;2023-12-29T08:44:16;90.93;;;61.13;;
63312;SDS011;49442;45.640;13.812;2023-12-29T08:46:42;89.43;;;61.35;;
63312;SDS011;49442;45.640;13.812;2023-12-29T08:49:08;92.38;;;61.78;;
63312;SDS011;49442;45.640;13.812;2023-12-29T08:51:34;91.40;;;60.65;;
63312;SDS011;49442;45.640;13.812;2023-12-29T08:53:59;89.35;;;62.42;;
63312;SDS011;49442;45.640;13.812;2023-12-29T08:56:25;91.35;;;62.42;;
63312;SDS011;49442;45.640;13.812;2023-12-29T08:58:51;89.63;;;59.08;;
63312;SDS011;49442;45.640;13.812;2023-12-29T09:01:17;90.35;;;59.30;;
63312;SDS011;49442;45.640;13.812;2023-12-29T09:03:44;89.40;;;59.17;;
63312;SDS011;49442;45.640;13.812;2023-12-29T09:06:10;87.95;;;58.88;;
63312;SDS011;49442;45.640;13.812;2023-12-29T09:08:35;91.32;;;58.45;;
63312;SDS011;49442;45.640;13.812;2023-12-29T09:11:01;86.80;;;59.78;;
63312;SDS011;49442;45.640;13.812;2023-12-29T09:13:27;81.95;;;57.13;;
63312;SDS011;49442;45.640;13.812;2023-12-29T09:15:54;79.45;;;54.90;;
63312;SDS011;49442;45.640;13.812;2023-12-29T09:18:20;84.60;;;55.85;;
63312;SDS011;49442;45.640;13.812;2023-12-29T09:20:46;80.45;;;55.42;;
63312;SDS011;49442;45.640;13.812;2023-12-29T09:23:12;83.22;;;57.40;;
63312;SDS011;49442;45.640;13.812;2023-12-29T09:25:38;80.93;;;54.83;;
63312;SDS011;49442;45.640;13.812;2023-12-29T09:28:04;75.90;;;53.83;;
63312;SDS011;49442;45.640;13.812;2023-12-29T09:30:30;87.05;;;57.95;;
63312;SDS011;49442;45.640;13.812;2023-12-29T09:32:56;79.57;;;54.65;;
63312;SDS011;49442;45.640;13.812;2023-12-29T09:35:21;79.07;;;54.13;;
63312;SDS011;49442;45.640;13.812;2023-12-29T09:37:47;79.07;;;53.75;;
63312;SDS011;49442;45.640;13.812;2023-12-29T09:40:13;83.30;;;53.28;;
63312;SDS011;49442;45.640;13.812;2023-12-29T09:42:40;74.85;;;52.03;;
63312;SDS011;49442;45.640;13.812;2023-12-29T09:45:09;77.90;;;53.42;;
63312;SDS011;49442;45.640;13.812;2023-12-29T09:47:38;75.25;;;49.90;;
63312;SDS011;49442;45.640;13.812;2023-12-29T09:50:05;70.63;;;51.47;;
63312;SDS011;49442;45.640;13.812;2023-12-29T09:52:35;81.47;;;52.63;;
63312;SDS011;49442;45.640;13.812;2023-12-29T09:55:02;75.13;;;52.42;;
63312;SDS011;49442;45.640;13.812;2023-12-29T09:57:29;72.00;;;48.05;;
63312;SDS011;49442;45.640;13.812;2023-12-29T09:59:55;75.28;;;49.10;;
63312;SDS011;49442;45.640;13.812;2023-12-29T10:02:22;71.85;;;48.97;;
63312;SDS011;49442;45.640;13.812;2023-12-29T10:04:48;74.88;;;49.38;;
63312;SDS011;49442;45.640;13.812;2023-12-29T10:07:20;74.90;;;48.40;;
63312;SDS011;49442;45.640;13.812;2023-12-29T10:09:51;78.50;;;46.70;;
63312;SDS011;49442;45.640;13.812;2023-12-29T10:12:19;63.83;;;46.00;;
63312;SDS011;49442;45.640;13.812;2023-12-29T10:15:31;65.60;;;44.40;;
63312;SDS011;49442;45.640;13.812;2023-12-29T10:17:48;65.60;;;46.20;;
63312;SDS011;49442;45.640;13.812;2023-12-29T10:25:13;59.50;;;43.15;;
63312;SDS011;49442;45.640;13.812;2023-12-29T10:27:39;73.88;;;47.30;;
63312;SDS011;49442;45.640;13.812;2023-12-29T10:30:06;61.88;;;42.38;;
63312;SDS011;49442;45.640;13.812;2023-12-29T10:32:36;65.90;;;42.13;;
63312;SDS011;49442;45.640;13.812;2023-12-29T10:35:08;64.95;;;41.30;;
63312;SDS011;49442;45.640;13.812;2023-12-29T10:37:35;61.13;;;41.83;;
63312;SDS011;49442;45.640;13.812;2023-12-29T10:40:01;58.42;;;41.47;;
63312;SDS011;49442;45.640;13.812;2023-12-29T10:42:27;59.50;;;43.10;;
63312;SDS011;49442;45.640;13.812;2023-12-29T10:45:06;53.88;;;40.30;;
63312;SDS011;49442;45.640;13.812;2023-12-29T10:47:34;60.95;;;39.25;;
63312;SDS011;49442;45.640;13.812;2023-12-29T10:50:04;58.08;;;39.83;;
63312;SDS011;49442;45.640;13.812;2023-12-29T10:52:31;60.90;;;41.45;;
63312;SDS011;49442;45.640;13.812;2023-12-29T10:55:04;68.82;;;41.78;;
63312;SDS011;49442;45.640;13.812;2023-12-29T10:57:31;58.92;;;42.13;;
63312;SDS011;49442;45.640;13.812;2023-12-29T11:00:00;71.75;;;46.33;;
63312;SDS011;49442;45.640;13.812;2023-12-29T11:02:26;62.05;;;44.85;;
63312;SDS011;49442;45.640;13.812;2023-12-29T11:05:01;63.60;;;45.05;;
63312;SDS011;49442;45.640;13.812;2023-12-29T11:07:31;65.00;;;43.88;;
63312;SDS011;49442;45.640;13.812;2023-12-29T11:10:08;61.08;;;44.63;;
63312;SDS011;49442;45.640;13.812;2023-12-29T11:12:37;67.18;;;44.83;;
63312;SDS011;49442;45.640;13.812;2023-12-29T11:15:04;75.90;;;46.85;;
63312;SDS011;49442;45.640;13.812;2023-12-29T11:17:33;73.05;;;50.50;;
63312;SDS011;49442;45.640;13.812;2023-12-29T11:20:00;72.63;;;47.38;;
63312;SDS011;49442;45.640;13.812;2023-12-29T11:22:31;65.43;;;47.28;;
63312;SDS011;49442;45.640;13.812;2023-12-29T11:24:58;69.70;;;48.22;;
63312;SDS011;49442;45.640;13.812;2023-12-29T11:27:28;78.00;;;50.55;;
63312;SDS011;49442;45.640;13.812;2023-12-29T11:29:55;72.80;;;49.03;;
63312;SDS011;49442;45.640;13.812;2023-12-29T11:32:27;73.90;;;51.15;;
63312;SDS011;49442;45.640;13.812;2023-12-29T11:35:18;72.70;;;48.70;;
63312;SDS011;49442;45.640;13.812;2023-12-29T11:38:00;86.03;;;54.97;;
63312;SDS011;49442;45.640;13.812;2023-12-29T11:40:52;67.28;;;48.22;;
63312;SDS011;49442;45.640;13.812;2023-12-29T11:43:25;74.57;;;51.83;;
63312;SDS011;49442;45.640;13.812;2023-12-29T11:45:52;80.68;;;54.25;;
63312;SDS011;49442;45.640;13.812;2023-12-29T11:54:26;78.45;;;54.05;;
63312;SDS011;49442;45.640;13.812;2023-12-29T11:56:52;79.50;;;53.25;;
63312;SDS011;49442;45.640;13.812;2023-12-29T11:59:21;76.13;;;54.13;;
63312;SDS011;49442;45.640;13.812;2023-12-29T12:01:56;76.03;;;53.38;;
63312;SDS011;49442;45.640;13.812;2023-12-29T12:07:09;81.07;;;55.65;;
63312;SDS011;49442;45.640;13.812;2023-12-29T12:09:47;81.38;;;55.30;;
63312;SDS011;49442;45.640;13.812;2023-12-29T12:12:14;80.32;;;55.08;;
63312;SDS011;49442;45.640;13.812;2023-12-29T12:15:17;83.15;;;57.58;;
63312;SDS011;49442;45.640;13.812;2023-12-29T12:20:23;83.03;;;55.83;;
63312;SDS011;49442;45.640;13.812;2023-12-29T12:22:50;87.40;;;57.58;;
63312;SDS011;49442;45.640;13.812;2023-12-29T12:25:24;82.78;;;57.30;;
63312;SDS011;49442;45.640;13.812;2023-12-29T12:27:53;85.72;;;59.17;;
63312;SDS011;49442;45.640;13.812;2023-12-29T12:30:19;87.70;;;61.03;;
63312;SDS011;49442;45.640;13.812;2023-12-29T12:32:45;90.93;;;60.67;;
63312;SDS011;49442;45.640;13.812;2023-12-29T12:35:14;87.30;;;59.70;;
63312;SDS011;49442;45.640;13.812;2023-12-29T12:37:43;87.95;;;61.50;;
63312;SDS011;49442;45.640;13.812;2023-12-29T12:40:09;94.45;;;64.45;;
63312;SDS011;49442;45.640;13.812;2023-12-29T12:42:40;88.93;;;61.05;;
63312;SDS011;49442;45.640;13.812;2023-12-29T12:45:09;84.45;;;62.90;;
63312;SDS011;49442;45.640;13.812;2023-12-29T12:47:51;92.07;;;62.42;;
63312;SDS011;49442;45.640;13.812;2023-12-29T12:50:20;88.50;;;62.28;;
63312;SDS011;49442;45.640;13.812;2023-12-29T12:52:46;96.40;;;62.58;;
63312;SDS011;49442;45.640;13.812;2023-12-29T12:55:12;91.72;;;62.65;;
63312;SDS011;49442;45.640;13.812;2023-12-29T12:57:39;90.10;;;64.13;;
63312;SDS011;49442;45.640;13.812;2023-12-29T13:00:06;92.28;;;64.22;;
63312;SDS011;49442;45.640;13.812;2023-12-29T13:02:33;92.07;;;64.50;;
63312;SDS011;49442;45.640;13.812;2023-12-29T13:05:00;88.03;;;63.88;;
63312;SDS011;49442;45.640;13.812;2023-12-29T13:07:30;87.00;;;61.78;;
63312;SDS011;49442;45.640;13.812;2023-12-29T13:09:56;90.38;;;63.10;;
63312;SDS011;49442;45.640;13.812;2023-12-29T13:12:23;94.10;;;65.25;;
63312;SDS011;49442;45.640;13.812;2023-12-29T13:14:49;97.28;;;66.47;;
63312;SDS011;49442;45.640;13.812;2023-12-29T13:17:16;93.20;;;65.70;;
63312;SDS011;49442;45.640;13.812;2023-12-29T13:19:42;95.43;;;65.50;;
63312;SDS011;49442;45.640;13.812;2023-12-29T13:22:12;89.18;;;64.18;;
63312;SDS011;49442;45.640;13.812;2023-12-29T13:24:44;93.65;;;63.80;;
63312;SDS011;49442;45.640;13.812;2023-12-29T13:27:10;93.95;;;64.82;;
63312;SDS011;49442;45.640;13.812;2023-12-29T13:29:37;92.13;;;65.22;;
63312;SDS011;49442;45.640;13.812;2023-12-29T13:40:54;94.95;;;64.15;;
63312;SDS011;49442;45.640;13.812;2023-12-29T13:43:24;94.40;;;63.83;;
63312;SDS011;49442;45.640;13.812;2023-12-29T13:45:53;89.63;;;64.18;;
63312;SDS011;49442;45.640;13.812;2023-12-29T13:48:20;94.38;;;61.42;;
63312;SDS011;49442;45.640;13.812;2023-12-29T13:50:47;96.22;;;67.30;;
63312;SDS011;49442;45.640;13.812;2023-12-29T13:53:19;94.85;;;64.38;;
63312;SDS011;49442;45.640;13.812;2023-12-29T13:55:46;90.18;;;62.55;;
63312;SDS011;49442;45.640;13.812;2023-12-29T13:58:11;93.07;;;64.45;;
63312;SDS011;49442;45.640;13.812;2023-12-29T14:00:38;92.07;;;63.85;;
63312;SDS011;49442;45.640;13.812;2023-12-29T14:03:06;95.18;;;63.03;;
63312;SDS011;49442;45.640;13.812;2023-12-29T14:10:41;91.65;;;61.80;;
63312;SDS011;49442;45.640;13.812;2023-12-29T14:13:08;92.65;;;62.75;;
63312;SDS011;49442;45.640;13.812;2023-12-29T14:15:38;87.72;;;61.63;;
63312;SDS011;49442;45.640;13.812;2023-12-29T14:20:48;87.55;;;59.75;;
63312;SDS011;49442;45.640;13.812;2023-12-29T14:23:16;90.40;;;62.00;;
63312;SDS011;49442;45.640;13.812;2023-12-29T14:25:43;93.05;;;63.03;;
63312;SDS011;49442;45.640;13.812;2023-12-29T14:28:16;94.22;;;63.70;;
63312;SDS011;49442;45.640;13.812;2023-12-29T14:30:43;90.30;;;63.83;;
63312;SDS011;49442;45.640;13.812;2023-12-29T14:33:09;93.30;;;62.03;;
63312;SDS011;49442;45.640;13.812;2023-12-29T14:35:35;90.85;;;60.03;;
63312;SDS011;49442;45.640;13.812;2023-12-29T14:38:01;108.60;;;63.75;;
63312;SDS011;49442;45.640;13.812;2023-12-29T14:40:27;93.32;;;64.38;;
63312;SDS011;49442;45.640;13.812;2023-12-29T14:42:53;90.35;;;60.85;;